Time;durP1;ratioP1;P1;durP2;ratioP2;P2;SDS_P1;SDS_P2;PMS_P1;PMS_P2;Temp;Humidity;BMP_temperature;BMP_pressure;BME280_temperature;BME280_humidity;BME280_pressure;Samples;Min_cycle;Max_cycle;Signal;HPM_P1;HPM_P2
2023/07/05 00:00:42;;;;;;;29.60;14.30;;;;;;;;;;106417;1286;25348;-80
2023/07/05 00:03:29;;;;;;;29.00;13.60;;;;;;;;;;106347;1264;22542;-79
2023/07/05 00:06:02;;;;;;;29.70;14.80;;;;;;;;;;106394;1286;22539;-81
2023/07/05 00:08:29;;;;;;;31.90;14.30;;;;;;;;;;106116;1288;25395;-79
2023/07/05 00:11:12;;;;;;;31.80;14.90;;;;;;;;;;103611;1273;3302894;-81
2023/07/05 00:13:39;;;;;;;29.30;13.90;;;;;;;;;;106345;1285;22584;-80
2023/07/05 00:16:15;;;;;;;28.80;13.90;;;;;;;;;;106423;1285;23005;-81
2023/07/05 00:18:42;;;;;;;27.30;13.50;;;;;;;;;;106495;1274;22699;-80
2023/07/05 00:21:16;;;;;;;29.50;13.50;;;;;;;;;;106448;1284;22531;-81
2023/07/05 00:23:45;;;;;;;32.60;12.90;;;;;;;;;;106490;1284;22533;-83
2023/07/05 00:26:12;;;;;;;27.30;13.30;;;;;;;;;;106463;1284;22566;-82
2023/07/05 00:28:46;;;;;;;31.20;14.10;;;;;;;;;;106443;1268;22553;-81
2023/07/05 00:31:15;;;;;;;33.00;14.00;;;;;;;;;;106431;1276;24222;-85
2023/07/05 00:33:42;;;;;;;26.60;13.60;;;;;;;;;;106439;1285;22553;-83
2023/07/05 00:36:13;;;;;;;33.70;13.90;;;;;;;;;;106423;1285;26486;-81
2023/07/05 00:38:40;;;;;;;28.10;14.40;;;;;;;;;;106415;1266;24275;-80
2023/07/05 00:41:07;;;;;;;29.00;13.80;;;;;;;;;;106441;1273;22509;-81
2023/07/05 00:43:33;;;;;;;28.10;14.10;;;;;;;;;;106461;1284;24228;-82
2023/07/05 00:46:16;;;;;;;26.40;14.00;;;;;;;;;;106483;1284;22551;-83
2023/07/05 00:48:45;;;;;;;32.10;13.50;;;;;;;;;;106381;1269;22527;-80
2023/07/05 00:51:19;;;;;;;26.90;13.30;;;;;;;;;;106227;1288;22540;-85
2023/07/05 00:53:56;;;;;;;29.90;12.60;;;;;;;;;;106111;1288;26592;-84
2023/07/05 00:56:27;;;;;;;28.90;13.00;;;;;;;;;;106913;1276;22536;-85
2023/07/05 00:58:55;;;;;;;26.80;12.80;;;;;;;;;;107019;1275;25513;-83
2023/07/05 01:01:25;;;;;;;28.10;13.60;;;;;;;;;;107105;1274;25946;-81
2023/07/05 01:03:54;;;;;;;28.20;14.10;;;;;;;;;;106950;1275;24387;-83
2023/07/05 01:06:22;;;;;;;27.70;13.40;;;;;;;;;;106983;1275;22477;-79
2023/07/05 01:08:49;;;;;;;31.00;14.50;;;;;;;;;;106829;1270;24326;-85
2023/07/05 01:11:32;;;;;;;26.00;13.80;;;;;;;;;;106838;1277;22537;-83
2023/07/05 01:14:02;;;;;;;25.40;13.20;;;;;;;;;;106853;1273;25559;-81
2023/07/05 01:16:53;;;;;;;23.30;12.90;;;;;;;;;;106905;1255;22527;-80
2023/07/05 01:19:23;;;;;;;27.80;13.00;;;;;;;;;;106928;1256;23879;-78
2023/07/05 01:22:12;;;;;;;25.00;13.00;;;;;;;;;;107081;1276;22521;-80
2023/07/05 01:24:39;;;;;;;25.90;13.40;;;;;;;;;;106981;1276;22524;-82
2023/07/05 01:27:24;;;;;;;24.90;13.20;;;;;;;;;;107043;1276;25285;-81
2023/07/05 01:30:05;;;;;;;;;;;;;;;;;;;;;
2023/07/05 01:32:45;;;;;;;24.30;13.30;;;;;;;;;;106966;1276;22480;-83
2023/07/05 01:35:18;;;;;;;24.80;13.50;;;;;;;;;;106937;1276;23163;-82
2023/07/05 01:37:45;;;;;;;27.70;14.50;;;;;;;;;;106879;1276;25380;-79
2023/07/05 01:40:42;;;;;;;28.30;15.20;;;;;;;;;;106944;1258;22628;-80
2023/07/05 01:43:11;;;;;;;29.10;14.70;;;;;;;;;;106956;1276;25262;-79
2023/07/05 01:45:47;;;;;;;26.30;14.00;;;;;;;;;;107049;1275;22606;-80
2023/07/05 01:48:22;;;;;;;25.90;14.40;;;;;;;;;;107131;1275;22994;-83
2023/07/05 01:50:57;;;;;;;29.30;15.20;;;;;;;;;;107062;1258;24354;-81
2023/07/05 01:53:27;;;;;;;29.60;16.30;;;;;;;;;;106873;1276;24532;-83
2023/07/05 01:55:59;;;;;;;30.00;16.60;;;;;;;;;;107092;1276;22549;-80
2023/07/05 01:58:28;;;;;;;28.80;17.30;;;;;;;;;;106918;1276;24194;-84
2023/07/05 02:00:57;;;;;;;31.60;16.60;;;;;;;;;;107168;1257;24231;-83
2023/07/05 02:03:25;;;;;;;28.80;15.50;;;;;;;;;;107070;1275;24300;-83
2023/07/05 02:05:55;;;;;;;28.10;15.10;;;;;;;;;;106937;1264;22536;-86
2023/07/05 02:08:27;;;;;;;27.70;14.70;;;;;;;;;;106937;1275;22577;-82
2023/07/05 02:10:55;;;;;;;28.90;14.50;;;;;;;;;;107119;1275;24231;-86
2023/07/05 02:13:23;;;;;;;27.30;13.60;;;;;;;;;;107115;1275;25303;-82
2023/07/05 02:15:50;;;;;;;24.60;12.90;;;;;;;;;;106968;1275;25409;-79
2023/07/05 02:18:17;;;;;;;23.80;12.80;;;;;;;;;;107170;1275;24350;-82
2023/07/05 02:21:06;;;;;;;24.10;13.60;;;;;;;;;;107017;1257;25242;-83
2023/07/05 02:23:42;;;;;;;23.90;12.80;;;;;;;;;;106947;1275;22517;-82
2023/07/05 02:26:09;;;;;;;23.00;13.70;;;;;;;;;;106945;1275;25357;-80
2023/07/05 02:28:36;;;;;;;23.60;13.30;;;;;;;;;;107168;1275;22520;-84
2023/07/05 02:31:06;;;;;;;23.10;13.50;;;;;;;;;;106961;1260;22542;-85
2023/07/05 02:33:45;;;;;;;22.80;13.40;;;;;;;;;;107051;1275;22520;-83
2023/07/05 02:36:16;;;;;;;24.00;13.00;;;;;;;;;;106903;1275;24247;-82
2023/07/05 02:38:42;;;;;;;26.00;13.00;;;;;;;;;;106960;1275;22647;-80
2023/07/05 02:41:15;;;;;;;23.40;12.70;;;;;;;;;;107082;1268;24431;-79
2023/07/05 02:43:44;;;;;;;25.50;13.00;;;;;;;;;;106960;1275;25344;-81
2023/07/05 02:46:14;;;;;;;26.80;12.90;;;;;;;;;;107089;1276;25431;-78
2023/07/05 02:48:41;;;;;;;25.20;13.50;;;;;;;;;;106935;1269;25289;-79
2023/07/05 02:51:08;;;;;;;25.50;12.80;;;;;;;;;;107026;1257;25315;-83
2023/07/05 02:53:45;;;;;;;23.90;13.00;;;;;;;;;;106953;1276;22516;-83
2023/07/05 02:56:12;;;;;;;23.80;13.50;;;;;;;;;;107077;1275;22531;-78
2023/07/05 02:58:39;;;;;;;23.70;12.90;;;;;;;;;;106904;1276;22523;-78
2023/07/05 03:01:13;;;;;;;23.60;13.10;;;;;;;;;;107104;1275;22542;-82
2023/07/05 03:04:12;;;;;;;21.90;12.30;;;;;;;;;;107003;1275;25274;-80
2023/07/05 03:06:57;;;;;;;21.10;12.30;;;;;;;;;;106913;1275;25294;-85
2023/07/05 03:09:33;;;;;;;22.00;12.50;;;;;;;;;;107027;1275;24318;-78
2023/07/05 03:12:19;;;;;;;18.80;11.60;;;;;;;;;;106992;1261;22545;-79
2023/07/05 03:15:03;;;;;;;23.70;12.40;;;;;;;;;;106883;1275;24448;-84
2023/07/05 03:17:55;;;;;;;23.50;12.50;;;;;;;;;;106856;1275;22681;-84
2023/07/05 03:20:30;;;;;;;24.00;12.50;;;;;;;;;;107044;1274;22622;-79
2023/07/05 03:23:18;;;;;;;25.00;12.50;;;;;;;;;;107096;1257;24438;-86
2023/07/05 03:25:58;;;;;;;23.00;13.50;;;;;;;;;;106962;1275;25461;-83
2023/07/05 03:28:35;;;;;;;25.50;13.80;;;;;;;;;;106959;1276;25466;-82
2023/07/05 03:31:08;;;;;;;23.70;12.60;;;;;;;;;;106950;1275;22540;-77
2023/07/05 03:33:35;;;;;;;26.00;12.90;;;;;;;;;;106980;1267;22531;-80
2023/07/05 03:36:04;;;;;;;23.70;13.10;;;;;;;;;;107202;1274;22529;-80
2023/07/05 03:38:37;;;;;;;25.40;13.10;;;;;;;;;;106993;1274;24229;-78
2023/07/05 03:41:26;;;;;;;25.40;13.70;;;;;;;;;;107015;1274;22607;-81
2023/07/05 03:44:21;;;;;;;25.00;13.60;;;;;;;;;;106925;1260;23275;-83
2023/07/05 03:46:51;;;;;;;24.70;12.60;;;;;;;;;;106982;1275;22542;-77
2023/07/05 03:49:21;;;;;;;24.30;13.00;;;;;;;;;;106883;1275;24199;-79
2023/07/05 03:51:48;;;;;;;23.20;13.30;;;;;;;;;;106925;1251;22524;-79
2023/07/05 03:54:30;;;;;;;22.70;13.80;;;;;;;;;;106989;1273;22540;-80
2023/07/05 03:56:57;;;;;;;24.90;12.70;;;;;;;;;;107171;1274;25343;-79
2023/07/05 03:59:41;;;;;;;;;;;;;;;;;;;;;
2023/07/05 04:02:09;;;;;;;26.40;12.80;;;;;;;;;;107174;1272;25350;-78
2023/07/05 04:04:42;;;;;;;23.90;12.80;;;;;;;;;;106937;1275;22520;-83
2023/07/05 04:07:09;;;;;;;24.80;12.60;;;;;;;;;;106956;1275;22522;-80
2023/07/05 04:09:38;;;;;;;25.70;13.30;;;;;;;;;;106887;1253;23269;-81
2023/07/05 04:12:15;;;;;;;26.30;13.80;;;;;;;;;;107168;1275;22528;-79
2023/07/05 04:14:55;;;;;;;30.20;14.80;;;;;;;;;;107000;1264;23132;-84
2023/07/05 04:17:31;;;;;;;23.60;13.00;;;;;;;;;;107231;1274;22514;-78
2023/07/05 04:20:02;;;;;;;24.70;13.60;;;;;;;;;;107130;1274;22529;-80
2023/07/05 04:22:35;;;;;;;29.10;14.20;;;;;;;;;;106956;1254;22536;-82
2023/07/05 04:25:08;;;;;;;27.80;12.80;;;;;;;;;;106973;1275;24271;-81
2023/07/05 04:27:43;;;;;;;23.30;12.40;;;;;;;;;;106987;1270;22677;-78
2023/07/05 04:30:10;;;;;;;25.70;12.10;;;;;;;;;;106958;1275;22522;-79
2023/07/05 04:32:48;;;;;;;25.00;12.80;;;;;;;;;;106954;1275;24244;-79
2023/07/05 04:35:15;;;;;;;24.90;12.30;;;;;;;;;;106951;1266;22997;-82
2023/07/05 04:37:42;;;;;;;32.30;13.20;;;;;;;;;;106942;1274;25510;-81
2023/07/05 04:40:09;;;;;;;30.80;13.30;;;;;;;;;;106973;1270;22609;-83
2023/07/05 04:42:36;;;;;;;30.20;13.60;;;;;;;;;;106972;1274;22524;-84
2023/07/05 04:45:03;;;;;;;24.90;14.20;;;;;;;;;;107208;1257;24547;-84
2023/07/05 04:47:36;;;;;;;23.70;13.10;;;;;;;;;;106930;1275;22530;-80
2023/07/05 04:50:03;;;;;;;25.40;13.80;;;;;;;;;;106953;1275;22528;-82
2023/07/05 04:52:30;;;;;;;29.70;15.00;;;;;;;;;;106930;1275;22613;-80
2023/07/05 04:54:58;;;;;;;29.80;13.60;;;;;;;;;;106968;1258;22520;-85
2023/07/05 04:57:27;;;;;;;27.10;13.10;;;;;;;;;;107140;1274;24186;-79
2023/07/05 04:59:54;;;;;;;32.40;13.00;;;;;;;;;;107009;1274;22676;-82
2023/07/05 05:02:20;;;;;;;24.00;13.60;;;;;;;;;;106849;1274;25271;-78
2023/07/05 05:04:47;;;;;;;27.20;13.50;;;;;;;;;;106878;1275;25464;-82
2023/07/05 05:07:14;;;;;;;25.70;14.40;;;;;;;;;;106919;1275;24270;-82
2023/07/05 05:09:42;;;;;;;26.80;13.70;;;;;;;;;;106993;1269;23909;-77
2023/07/05 05:12:09;;;;;;;23.30;14.00;;;;;;;;;;106900;1275;22618;-80
2023/07/05 05:14:43;;;;;;;27.30;15.10;;;;;;;;;;106869;1259;22643;-81
2023/07/05 05:17:10;;;;;;;34.60;14.50;;;;;;;;;;107120;1274;22792;-80
2023/07/05 05:19:40;;;;;;;34.30;14.10;;;;;;;;;;107158;1274;22528;-78
2023/07/05 05:22:07;;;;;;;27.70;14.00;;;;;;;;;;107164;1274;25298;-83
2023/07/05 05:24:36;;;;;;;25.10;13.10;;;;;;;;;;107147;1257;22520;-85
2023/07/05 05:27:03;;;;;;;24.40;13.10;;;;;;;;;;106935;1275;24293;-82
2023/07/05 05:29:30;;;;;;;23.40;12.90;;;;;;;;;;107000;1275;25333;-79
2023/07/05 05:31:57;;;;;;;21.70;13.70;;;;;;;;;;106976;1275;24199;-85
2023/07/05 05:34:27;;;;;;;23.50;13.70;;;;;;;;;;107000;1251;22525;-81
2023/07/05 05:36:59;;;;;;;26.00;13.40;;;;;;;;;;107209;1270;22527;-80
2023/07/05 05:39:33;;;;;;;27.20;13.90;;;;;;;;;;107215;1274;24192;-81
2023/07/05 05:42:00;;;;;;;26.50;13.20;;;;;;;;;;106947;1274;22598;-78
2023/07/05 05:44:26;;;;;;;21.80;13.10;;;;;;;;;;107137;1253;24202;-84
2023/07/05 05:47:01;;;;;;;23.20;13.30;;;;;;;;;;107147;1275;22554;-82
2023/07/05 05:49:28;;;;;;;23.60;13.30;;;;;;;;;;106797;1275;24190;-81
2023/07/05 05:51:55;;;;;;;23.80;13.20;;;;;;;;;;106916;1275;23892;-81
2023/07/05 05:54:22;;;;;;;27.30;13.00;;;;;;;;;;106900;1275;24804;-77
2023/07/05 05:56:49;;;;;;;23.80;12.80;;;;;;;;;;107122;1267;22665;-78
2023/07/05 05:59:16;;;;;;;23.70;13.30;;;;;;;;;;106987;1274;25353;-82
2023/07/05 06:01:45;;;;;;;21.80;13.20;;;;;;;;;;107211;1274;25423;-80
2023/07/05 06:04:12;;;;;;;24.90;13.50;;;;;;;;;;107172;1274;25335;-83
2023/07/05 06:06:39;;;;;;;24.40;13.50;;;;;;;;;;107178;1256;22525;-83
2023/07/05 06:09:05;;;;;;;21.50;12.60;;;;;;;;;;106931;1275;22518;-85
2023/07/05 06:11:32;;;;;;;23.60;12.90;;;;;;;;;;106973;1275;21723;-80
2023/07/05 06:13:59;;;;;;;21.90;12.40;;;;;;;;;;107078;1275;22518;-85
2023/07/05 06:16:26;;;;;;;23.90;13.00;;;;;;;;;;107101;1274;24192;-83
2023/07/05 06:18:53;;;;;;;23.10;12.30;;;;;;;;;;107164;1274;22515;-86
2023/07/05 06:21:22;;;;;;;25.00;13.40;;;;;;;;;;107190;1266;22517;-79
2023/07/05 06:23:50;;;;;;;23.50;13.10;;;;;;;;;;106917;1274;22582;-83
2023/07/05 06:26:23;;;;;;;24.40;13.10;;;;;;;;;;107139;1257;22680;-83
2023/07/05 06:28:55;;;;;;;20.30;12.60;;;;;;;;;;107223;1274;26483;-81
2023/07/05 06:31:33;;;;;;;21.00;12.50;;;;;;;;;;107134;1274;23945;-84
2023/07/05 06:34:00;;;;;;;23.00;12.80;;;;;;;;;;107120;1274;25037;-82
2023/07/05 06:36:26;;;;;;;22.30;12.90;;;;;;;;;;107018;1257;22481;-82
2023/07/05 06:38:53;;;;;;;23.10;12.60;;;;;;;;;;106917;1275;24266;-81
2023/07/05 06:41:23;;;;;;;22.40;13.10;;;;;;;;;;106913;1275;24202;-80
2023/07/05 06:43:50;;;;;;;21.50;13.30;;;;;;;;;;106945;1275;22756;-79
2023/07/05 06:46:20;;;;;;;21.50;12.80;;;;;;;;;;107012;1266;22518;-81
2023/07/05 06:48:48;;;;;;;23.40;13.40;;;;;;;;;;106951;1275;22514;-86
2023/07/05 06:51:15;;;;;;;22.40;13.30;;;;;;;;;;107153;1275;25347;-83
2023/07/05 06:53:42;;;;;;;21.70;13.10;;;;;;;;;;107124;1272;25677;-80
2023/07/05 06:56:09;;;;;;;20.90;13.10;;;;;;;;;;107162;1255;22517;-79
2023/07/05 06:58:37;;;;;;;20.50;12.50;;;;;;;;;;106953;1274;22532;-83
2023/07/05 07:01:11;;;;;;;21.60;12.60;;;;;;;;;;107151;1274;22486;-80
2023/07/05 07:03:37;;;;;;;21.00;12.50;;;;;;;;;;107163;1274;22558;-79
2023/07/05 07:06:04;;;;;;;22.20;13.60;;;;;;;;;;107074;1275;25363;-82
2023/07/05 07:08:38;;;;;;;22.90;13.10;;;;;;;;;;107106;1275;26689;-83
2023/07/05 07:11:06;;;;;;;21.30;13.40;;;;;;;;;;106944;1275;22520;-83
2023/07/05 07:13:33;;;;;;;20.20;12.50;;;;;;;;;;107066;1275;26487;-81
2023/07/05 07:16:09;;;;;;;22.50;13.00;;;;;;;;;;106995;1269;22560;-79
2023/07/05 07:18:45;;;;;;;20.50;12.60;;;;;;;;;;107001;1256;24216;-82
2023/07/05 07:21:16;;;;;;;21.50;12.20;;;;;;;;;;107160;1274;24255;-83
2023/07/05 07:23:52;;;;;;;20.60;12.50;;;;;;;;;;107172;1253;22515;-83
2023/07/05 07:26:20;;;;;;;20.40;13.70;;;;;;;;;;107180;1274;22492;-78
2023/07/05 07:28:48;;;;;;;21.50;12.80;;;;;;;;;;106894;1257;25255;-83
2023/07/05 07:31:22;;;;;;;19.90;12.50;;;;;;;;;;106858;1275;22528;-82
2023/07/05 07:33:49;;;;;;;20.50;12.10;;;;;;;;;;106820;1270;22643;-82
2023/07/05 07:36:21;;;;;;;21.20;12.80;;;;;;;;;;106884;1275;25367;-84
2023/07/05 07:38:50;;;;;;;19.80;12.10;;;;;;;;;;106843;1258;25088;-84
2023/07/05 07:41:18;;;;;;;19.90;12.90;;;;;;;;;;107010;1264;22544;-80
2023/07/05 07:43:46;;;;;;;22.60;12.70;;;;;;;;;;107107;1271;22524;-81
2023/07/05 07:46:15;;;;;;;22.90;12.70;;;;;;;;;;107227;1270;22782;-81
2023/07/05 07:48:52;;;;;;;18.40;11.70;;;;;;;;;;107000;1257;24243;-79
2023/07/05 07:51:23;;;;;;;18.30;10.60;;;;;;;;;;106990;1268;25259;-80
2023/07/05 07:53:53;;;;;;;18.40;11.40;;;;;;;;;;107016;1269;25329;-79
2023/07/05 07:56:24;;;;;;;23.00;12.00;;;;;;;;;;107021;1268;24880;-80
2023/07/05 07:59:01;;;;;;;23.10;13.70;;;;;;;;;;107033;1269;24364;-79
2023/07/05 08:01:29;;;;;;;19.70;10.40;;;;;;;;;;106945;1274;22521;-79
2023/07/05 08:03:57;;;;;;;18.20;10.70;;;;;;;;;;107112;1274;23958;-86
2023/07/05 08:06:32;;;;;;;20.50;11.70;;;;;;;;;;107026;1268;22517;-79
2023/07/05 08:08:59;;;;;;;19.00;10.70;;;;;;;;;;107236;1258;22527;-83
2023/07/05 08:11:29;;;;;;;15.40;9.70;;;;;;;;;;107345;1268;22522;-79
2023/07/05 08:14:01;;;;;;;16.00;9.80;;;;;;;;;;106998;1268;22520;-80
2023/07/05 08:16:34;;;;;;;16.60;9.40;;;;;;;;;;107052;1269;22494;-82
2023/07/05 08:19:01;;;;;;;14.30;8.40;;;;;;;;;;107089;1256;22536;-79
2023/07/05 08:21:28;;;;;;;13.20;8.30;;;;;;;;;;107064;1269;22521;-78
2023/07/05 08:23:55;;;;;;;14.50;8.00;;;;;;;;;;107022;1272;22601;-82
2023/07/05 08:26:22;;;;;;;11.90;7.40;;;;;;;;;;107025;1274;24202;-79
2023/07/05 08:28:49;;;;;;;15.50;9.70;;;;;;;;;;106920;1258;23138;-85
2023/07/05 08:31:16;;;;;;;15.60;9.10;;;;;;;;;;107099;1275;22595;-80
2023/07/05 08:33:44;;;;;;;16.40;9.00;;;;;;;;;;106964;1275;22520;-81
2023/07/05 08:36:14;;;;;;;16.40;8.40;;;;;;;;;;107125;1269;25278;-80
2023/07/05 08:38:46;;;;;;;13.00;7.60;;;;;;;;;;107007;1253;22552;-82
2023/07/05 08:41:13;;;;;;;11.30;6.60;;;;;;;;;;107128;1274;24459;-78
2023/07/05 08:43:45;;;;;;;13.90;6.40;;;;;;;;;;107133;1274;22986;-81
2023/07/05 08:46:16;;;;;;;13.50;5.60;;;;;;;;;;106993;1271;25447;-81
2023/07/05 08:48:47;;;;;;;12.10;6.20;;;;;;;;;;107312;1269;25320;-81
2023/07/05 08:51:22;;;;;;;10.60;5.50;;;;;;;;;;107136;1269;25297;-80
2023/07/05 08:53:54;;;;;;;14.60;6.70;;;;;;;;;;106967;1267;22545;-84
2023/07/05 08:56:38;;;;;;;9.80;5.80;;;;;;;;;;107086;1275;24249;-80
2023/07/05 08:59:10;;;;;;;16.70;6.50;;;;;;;;;;107054;1258;22955;-78
2023/07/05 09:01:38;;;;;;;9.40;4.80;;;;;;;;;;107281;1269;22554;-80
2023/07/05 09:04:25;;;;;;;11.90;4.60;;;;;;;;;;107257;1269;23011;-79
2023/07/05 09:06:54;;;;;;;12.00;4.90;;;;;;;;;;107493;1268;22481;-79
2023/07/05 09:09:29;;;;;;;10.00;4.60;;;;;;;;;;107279;1256;22522;-80
2023/07/05 09:12:26;;;;;;;10.10;5.00;;;;;;;;;;106889;1275;22535;-79
2023/07/05 09:15:07;;;;;;;11.40;5.90;;;;;;;;;;107022;1275;24362;-80
2023/07/05 09:17:34;;;;;;;12.10;5.30;;;;;;;;;;106984;1275;22524;-80
2023/07/05 09:20:24;;;;;;;13.10;5.50;;;;;;;;;;106921;1270;22525;-83
2023/07/05 09:22:54;;;;;;;8.90;4.90;;;;;;;;;;106992;1276;25319;-83
2023/07/05 09:25:22;;;;;;;10.50;5.00;;;;;;;;;;107012;1276;22553;-79
2023/07/05 09:27:53;;;;;;;8.40;5.10;;;;;;;;;;107066;1273;22521;-80
2023/07/05 09:30:27;;;;;;;11.40;5.60;;;;;;;;;;107213;1256;22587;-79
2023/07/05 09:33:06;;;;;;;10.20;4.00;;;;;;;;;;107041;1270;22501;-78
2023/07/05 09:35:35;;;;;;;10.60;3.20;;;;;;;;;;107096;1268;23093;-80
2023/07/05 09:38:17;;;;;;;6.20;2.90;;;;;;;;;;107092;1269;22530;-81
2023/07/05 09:40:51;;;;;;;13.00;3.90;;;;;;;;;;106943;1269;22545;-78
2023/07/05 09:43:24;;;;;;;9.40;4.50;;;;;;;;;;107044;1269;24330;-81
2023/07/05 09:45:52;;;;;;;10.60;3.40;;;;;;;;;;106903;1269;25290;-79
2023/07/05 09:48:22;;;;;;;12.90;3.40;;;;;;;;;;106846;1269;22568;-80
2023/07/05 09:50:51;;;;;;;9.40;3.20;;;;;;;;;;106879;1257;22690;-79
2023/07/05 09:53:24;;;;;;;6.80;2.80;;;;;;;;;;106924;1266;22520;-79
2023/07/05 09:56:02;;;;;;;8.80;3.40;;;;;;;;;;106962;1264;22519;-80
2023/07/05 09:58:29;;;;;;;8.70;3.50;;;;;;;;;;107185;1269;24266;-79
2023/07/05 10:01:04;;;;;;;7.50;3.20;;;;;;;;;;106984;1258;22519;-82
2023/07/05 10:03:35;;;;;;;8.40;3.70;;;;;;;;;;106930;1275;24176;-84
2023/07/05 10:06:07;;;;;;;7.90;3.40;;;;;;;;;;107084;1268;23870;-77
2023/07/05 10:08:53;;;;;;;9.00;3.30;;;;;;;;;;107078;1268;22521;-78
2023/07/05 10:11:20;;;;;;;9.50;3.00;;;;;;;;;;107142;1256;25350;-81
2023/07/05 10:14:01;;;;;;;10.00;3.40;;;;;;;;;;107199;1262;24333;-81
2023/07/05 10:16:48;;;;;;;9.80;3.50;;;;;;;;;;107114;1266;24196;-82
2023/07/05 10:19:38;;;;;;;11.30;3.90;;;;;;;;;;107079;1269;25375;-78
2023/07/05 10:22:06;;;;;;;11.30;3.80;;;;;;;;;;106989;1264;24260;-82
2023/07/05 10:24:40;;;;;;;8.50;3.80;;;;;;;;;;107239;1266;22484;-79
2023/07/05 10:27:21;;;;;;;7.90;3.40;;;;;;;;;;107117;1266;22531;-82
2023/07/05 10:29:49;;;;;;;9.40;3.20;;;;;;;;;;107175;1268;23866;-83
2023/07/05 10:32:18;;;;;;;7.20;3.00;;;;;;;;;;107113;1269;22517;-80
2023/07/05 10:34:47;;;;;;;11.20;2.90;;;;;;;;;;107109;1269;26477;-79
2023/07/05 10:37:25;;;;;;;10.50;3.10;;;;;;;;;;107197;1266;24222;-76
2023/07/05 10:39:52;;;;;;;8.50;2.60;;;;;;;;;;107128;1270;24221;-86
2023/07/05 10:42:18;;;;;;;8.80;2.90;;;;;;;;;;106980;1258;22519;-84
2023/07/05 10:44:45;;;;;;;6.40;3.10;;;;;;;;;;107132;1269;25281;-79
2023/07/05 10:47:13;;;;;;;7.90;2.90;;;;;;;;;;106950;1272;25400;-83
2023/07/05 10:49:43;;;;;;;10.20;3.30;;;;;;;;;;106989;1269;22760;-81
2023/07/05 10:52:12;;;;;;;9.10;3.60;;;;;;;;;;107202;1256;25275;-79
2023/07/05 10:54:42;;;;;;;8.30;3.20;;;;;;;;;;107126;1270;24244;-78
2023/07/05 10:57:15;;;;;;;12.90;3.30;;;;;;;;;;106953;1273;25428;-82
2023/07/05 10:59:43;;;;;;;11.20;3.90;;;;;;;;;;107183;1267;24350;-79
2023/07/05 11:02:29;;;;;;;9.70;3.90;;;;;;;;;;106959;1259;22523;-83
2023/07/05 11:04:56;;;;;;;8.40;3.70;;;;;;;;;;107049;1269;25182;-80
2023/07/05 11:07:33;;;;;;;10.00;3.70;;;;;;;;;;106957;1269;22520;-80
2023/07/05 11:10:00;;;;;;;8.80;3.60;;;;;;;;;;106914;1268;22668;-81
2023/07/05 11:12:32;;;;;;;9.60;3.10;;;;;;;;;;107178;1256;22525;-82
2023/07/05 11:14:59;;;;;;;10.80;3.40;;;;;;;;;;107121;1266;22598;-82
2023/07/05 11:17:31;;;;;;;8.50;3.10;;;;;;;;;;106975;1269;22632;-79
2023/07/05 11:20:21;;;;;;;10.30;3.40;;;;;;;;;;107141;1270;28521;-81
2023/07/05 11:22:48;;;;;;;8.90;3.20;;;;;;;;;;107106;1268;22537;-81
2023/07/05 11:25:18;;;;;;;9.40;3.20;;;;;;;;;;107012;1272;22517;-80
2023/07/05 11:27:50;;;;;;;10.60;3.70;;;;;;;;;;106994;1265;22736;-80
2023/07/05 11:30:38;;;;;;;8.50;3.20;;;;;;;;;;107179;1269;22584;-81
2023/07/05 11:33:16;;;;;;;11.40;3.20;;;;;;;;;;107196;1256;25214;-79
2023/07/05 11:35:53;;;;;;;12.30;3.60;;;;;;;;;;107238;1269;22523;-80
2023/07/05 11:38:35;;;;;;;10.30;3.60;;;;;;;;;;107240;1272;25482;-78
2023/07/05 11:41:06;;;;;;;8.50;3.50;;;;;;;;;;107211;1266;25476;-78
2023/07/05 11:43:38;;;;;;;12.30;3.60;;;;;;;;;;107036;1256;24180;-77
2023/07/05 11:46:25;;;;;;;15.20;4.30;;;;;;;;;;107035;1269;25370;-77
2023/07/05 11:48:52;;;;;;;8.50;3.50;;;;;;;;;;107103;1269;25372;-79
2023/07/05 11:51:28;;;;;;;10.50;4.00;;;;;;;;;;107105;1268;22522;-83
2023/07/05 11:53:56;;;;;;;8.20;4.00;;;;;;;;;;107103;1267;25224;-80
2023/07/05 11:56:24;;;;;;;8.60;3.30;;;;;;;;;;106963;1268;22523;-78
2023/07/05 11:58:53;;;;;;;22.00;4.50;;;;;;;;;;107011;1268;25498;-82
2023/07/05 12:01:28;;;;;;;16.90;3.70;;;;;;;;;;107128;1272;24676;-84
2023/07/05 12:03:58;;;;;;;9.60;3.80;;;;;;;;;;107208;1256;24973;-79
2023/07/05 12:06:32;;;;;;;8.30;3.40;;;;;;;;;;107012;1272;24366;-78
2023/07/05 12:09:04;;;;;;;7.40;3.30;;;;;;;;;;107103;1272;25354;-82
2023/07/05 12:11:41;;;;;;;7.50;3.20;;;;;;;;;;104433;1269;3694684;-79
2023/07/05 12:14:13;;;;;;;7.40;3.50;;;;;;;;;;106913;1269;22539;-81
2023/07/05 12:16:41;;;;;;;7.60;3.50;;;;;;;;;;106829;1271;25344;-82
2023/07/05 12:19:12;;;;;;;9.00;3.50;;;;;;;;;;106965;1269;24212;-83
2023/07/05 12:21:39;;;;;;;9.80;3.80;;;;;;;;;;106936;1272;22535;-81
2023/07/05 12:24:10;;;;;;;8.30;3.20;;;;;;;;;;107051;1259;22520;-82
2023/07/05 12:26:37;;;;;;;9.30;3.80;;;;;;;;;;107124;1266;22536;-79
2023/07/05 12:29:18;;;;;;;12.30;3.50;;;;;;;;;;107038;1269;22547;-79
2023/07/05 12:31:45;;;;;;;15.00;4.30;;;;;;;;;;107037;1275;25179;-84
2023/07/05 12:34:17;;;;;;;8.40;3.60;;;;;;;;;;106998;1257;22525;-85
2023/07/05 12:36:52;;;;;;;12.10;3.60;;;;;;;;;;106875;1276;22611;-83
2023/07/05 12:39:18;;;;;;;8.90;3.00;;;;;;;;;;106871;1276;22732;-82
2023/07/05 12:41:59;;;;;;;8.60;3.50;;;;;;;;;;106993;1271;24399;-77
2023/07/05 12:44:26;;;;;;;10.40;3.60;;;;;;;;;;106977;1267;24120;-79
2023/07/05 12:46:53;;;;;;;8.40;3.60;;;;;;;;;;106967;1275;22534;-81
2023/07/05 12:49:24;;;;;;;10.00;3.30;;;;;;;;;;106967;1275;22527;-83
2023/07/05 12:51:53;;;;;;;10.10;3.70;;;;;;;;;;107188;1275;22531;-82
2023/07/05 12:54:21;;;;;;;10.20;3.40;;;;;;;;;;107123;1256;25243;-85
2023/07/05 12:56:49;;;;;;;9.20;3.20;;;;;;;;;;107230;1274;21733;-78
2023/07/05 12:59:16;;;;;;;12.00;3.30;;;;;;;;;;107198;1274;25318;-77
2023/07/05 13:01:45;;;;;;;11.30;3.50;;;;;;;;;;106992;1272;22741;-78
2023/07/05 13:04:13;;;;;;;8.10;3.20;;;;;;;;;;106843;1272;22641;-82
2023/07/05 13:06:40;;;;;;;13.40;3.70;;;;;;;;;;106958;1272;22983;-79
2023/07/05 13:09:07;;;;;;;9.10;3.10;;;;;;;;;;107027;1272;23873;-79
2023/07/05 13:11:34;;;;;;;8.30;3.20;;;;;;;;;;106785;1268;22540;-77
2023/07/05 13:14:01;;;;;;;9.10;2.70;;;;;;;;;;106962;1259;22560;-77
2023/07/05 13:16:41;;;;;;;9.90;3.20;;;;;;;;;;107035;1256;22518;-77
2023/07/05 13:19:09;;;;;;;13.60;3.80;;;;;;;;;;107167;1269;24209;-76
2023/07/05 13:21:49;;;;;;;15.20;4.00;;;;;;;;;;107045;1272;22480;-77
2023/07/05 13:24:17;;;;;;;14.00;3.90;;;;;;;;;;106981;1257;24056;-77
2023/07/05 13:26:45;;;;;;;14.10;3.50;;;;;;;;;;106903;1269;25389;-78
2023/07/05 13:29:20;;;;;;;14.20;3.60;;;;;;;;;;106868;1253;24251;-78
2023/07/05 13:31:48;;;;;;;13.80;3.50;;;;;;;;;;106946;1275;25347;-77
2023/07/05 13:34:15;;;;;;;15.50;3.40;;;;;;;;;;107073;1266;24348;-78
2023/07/05 13:36:43;;;;;;;24.50;4.40;;;;;;;;;;106820;1272;25409;-80
2023/07/05 13:39:14;;;;;;;23.70;4.30;;;;;;;;;;106825;1274;22657;-81
2023/07/05 13:41:42;;;;;;;12.50;3.40;;;;;;;;;;107036;1274;22515;-78
2023/07/05 13:44:15;;;;;;;8.00;3.60;;;;;;;;;;106919;1254;26485;-79
2023/07/05 13:46:41;;;;;;;8.90;3.30;;;;;;;;;;106657;1275;23108;-80
2023/07/05 13:49:11;;;;;;;11.50;3.60;;;;;;;;;;106912;1269;22581;-77
2023/07/05 13:51:43;;;;;;;14.40;3.50;;;;;;;;;;106912;1275;25265;-77
2023/07/05 13:54:11;;;;;;;10.90;3.60;;;;;;;;;;106825;1272;22517;-79
2023/07/05 13:56:39;;;;;;;14.50;3.50;;;;;;;;;;106901;1268;23113;-81
2023/07/05 13:59:06;;;;;;;12.70;3.90;;;;;;;;;;107025;1269;22531;-77
2023/07/05 14:01:32;;;;;;;9.50;3.50;;;;;;;;;;107072;1266;22765;-81
2023/07/05 14:03:59;;;;;;;10.20;3.20;;;;;;;;;;106981;1269;24205;-78
2023/07/05 14:06:26;;;;;;;8.20;3.30;;;;;;;;;;106933;1259;25475;-76
2023/07/05 14:08:54;;;;;;;8.30;3.10;;;;;;;;;;107057;1269;23187;-78
2023/07/05 14:11:23;;;;;;;7.30;2.80;;;;;;;;;;106857;1262;25444;-78
2023/07/05 14:13:49;;;;;;;8.50;2.80;;;;;;;;;;106867;1275;24165;-78
2023/07/05 14:16:21;;;;;;;11.00;3.60;;;;;;;;;;107143;1257;24347;-80
2023/07/05 14:18:50;;;;;;;10.00;3.10;;;;;;;;;;107061;1266;24224;-76
2023/07/05 14:21:33;;;;;;;8.40;3.00;;;;;;;;;;107070;1271;22994;-77
2023/07/05 14:24:01;;;;;;;7.70;2.60;;;;;;;;;;107013;1269;24209;-77
2023/07/05 14:26:29;;;;;;;6.60;2.30;;;;;;;;;;106858;1259;25454;-78
2023/07/05 14:28:57;;;;;;;9.30;2.70;;;;;;;;;;106974;1266;24861;-76
2023/07/05 14:31:23;;;;;;;6.70;2.30;;;;;;;;;;107085;1270;22527;-78
2023/07/05 14:33:55;;;;;;;6.80;2.30;;;;;;;;;;106957;1266;22528;-80
2023/07/05 14:36:22;;;;;;;8.40;2.70;;;;;;;;;;106802;1259;24251;-78
2023/07/05 14:38:49;;;;;;;10.50;2.60;;;;;;;;;;106999;1269;22583;-80